createdAt,value
2019-02-24T00:02:57.052Z,32.04
2019-02-24T00:06:00.531Z,32.12
2019-02-24T00:09:04.747Z,32.06
2019-02-24T00:12:10.166Z,32.07
2019-02-24T00:15:13.655Z,32.06
2019-02-24T00:18:17.149Z,32.05
2019-02-24T00:21:20.652Z,32.06
2019-02-24T00:24:24.137Z,32.04
2019-02-24T00:27:27.632Z,32.10
2019-02-24T00:30:31.149Z,32.07
2019-02-24T00:33:34.678Z,32.05
2019-02-24T00:36:38.145Z,32.07
2019-02-24T00:39:41.646Z,32.10
2019-02-24T00:42:46.213Z,32.11
2019-02-24T00:45:49.702Z,32.11
2019-02-24T00:48:53.154Z,32.07
2019-02-24T00:51:57.702Z,32.07
2019-02-24T00:55:01.216Z,32.09
2019-02-24T00:58:04.713Z,32.10
2019-02-24T01:01:08.239Z,32.08
2019-02-24T01:04:11.714Z,32.11
2019-02-24T01:07:15.160Z,32.16
2019-02-24T01:10:18.724Z,32.09
2019-02-24T01:13:22.203Z,32.11
2019-02-24T01:16:25.725Z,32.12
2019-02-24T01:19:29.231Z,32.10
2019-02-24T01:22:32.701Z,32.10
2019-02-24T01:25:36.148Z,32.09
2019-02-24T01:28:39.605Z,32.11
2019-02-24T01:31:43.215Z,32.11
2019-02-24T01:34:47.744Z,32.19
2019-02-24T01:37:51.226Z,32.14
2019-02-24T01:40:54.756Z,32.09
2019-02-24T01:43:58.241Z,32.10
2019-02-24T01:47:01.749Z,32.13
2019-02-24T01:50:05.544Z,32.12
2019-02-24T01:53:09.066Z,32.11
2019-02-24T01:56:12.529Z,32.17
2019-02-24T01:59:16.172Z,32.14
2019-02-24T02:02:19.706Z,32.14
2019-02-24T02:05:23.235Z,32.15
2019-02-24T02:08:26.876Z,32.15
2019-02-24T02:11:30.440Z,32.15
2019-02-24T02:14:34.085Z,32.15
2019-02-24T02:17:37.579Z,32.14
2019-02-24T02:20:41.083Z,32.17
2019-02-24T02:23:44.707Z,32.16
2019-02-24T02:26:48.301Z,32.11
2019-02-24T02:29:51.749Z,32.17
2019-02-24T02:32:55.281Z,32.15
2019-02-24T02:35:58.799Z,32.16
2019-02-24T02:39:02.297Z,32.16
2019-02-24T02:42:05.820Z,32.14
2019-02-24T02:45:09.332Z,32.11
2019-02-24T02:48:12.858Z,32.15
2019-02-24T02:51:16.508Z,32.16
2019-02-24T02:54:20.033Z,32.14
2019-02-24T02:57:23.487Z,32.15
2019-02-24T03:00:29.852Z,32.15
2019-02-24T03:03:33.357Z,32.15
2019-02-24T03:06:41.748Z,32.17
2019-02-24T03:09:45.279Z,32.15
2019-02-24T03:12:48.792Z,32.19
2019-02-24T03:15:52.319Z,32.19
2019-02-24T03:18:55.778Z,32.17
2019-02-24T03:21:59.322Z,32.13
2019-02-24T03:25:02.798Z,32.14
2019-02-24T03:28:06.377Z,32.14
2019-02-24T03:31:09.896Z,32.11
2019-02-24T03:34:13.339Z,32.16
2019-02-24T03:37:16.796Z,32.16
2019-02-24T03:40:20.254Z,32.17
2019-02-24T03:43:24.839Z,32.17
2019-02-24T03:46:30.356Z,32.17
2019-02-24T03:49:35.898Z,32.16
2019-02-24T03:52:39.409Z,32.13
2019-02-24T03:55:44.965Z,32.16
2019-02-24T03:58:48.473Z,32.13
2019-02-24T04:01:51.983Z,32.17
2019-02-24T04:04:55.531Z,32.14
2019-02-24T04:07:58.960Z,32.14
2019-02-24T04:11:02.424Z,32.17
2019-02-24T04:14:05.995Z,32.20
2019-02-24T04:17:10.486Z,32.17
2019-02-24T04:20:13.944Z,32.18
2019-02-24T04:23:17.524Z,32.15
2019-02-24T04:26:21.002Z,32.19
2019-02-24T04:29:25.391Z,32.18
2019-02-24T04:32:29.138Z,32.17
2019-02-24T04:35:32.804Z,32.16
2019-02-24T04:38:36.436Z,32.16
2019-02-24T04:41:39.934Z,32.20
2019-02-24T04:44:43.480Z,32.17
2019-02-24T04:47:46.938Z,32.18
2019-02-24T04:50:50.438Z,32.19
2019-02-24T04:53:54.989Z,32.13
2019-02-24T04:56:58.485Z,32.16
2019-02-24T05:00:01.977Z,32.15
2019-02-24T05:03:06.493Z,32.16
2019-02-24T05:06:09.998Z,32.15
2019-02-24T05:09:13.499Z,32.17
2019-02-24T05:12:17.026Z,32.17
2019-02-24T05:15:20.501Z,32.17
2019-02-24T05:18:23.986Z,32.17
2019-02-24T05:21:27.522Z,32.15
2019-02-24T05:24:30.985Z,32.18
2019-02-24T05:27:34.494Z,32.15
2019-02-24T05:30:37.980Z,32.17
2019-02-24T05:33:41.573Z,32.19
2019-02-24T05:36:45.040Z,32.14
2019-02-24T05:39:48.541Z,32.17
2019-02-24T05:42:52.000Z,32.13
2019-02-24T05:45:55.599Z,32.15
2019-02-24T05:48:59.053Z,32.15
2019-02-24T05:52:02.519Z,32.15
2019-02-24T05:55:06.132Z,32.19
2019-02-24T05:58:09.692Z,32.18
2019-02-24T06:01:15.275Z,32.18
2019-02-24T06:04:19.780Z,32.15
2019-02-24T06:07:23.282Z,32.18
2019-02-24T06:10:27.844Z,32.17
2019-02-24T06:13:31.303Z,32.14
2019-02-24T06:16:35.823Z,32.18
2019-02-24T06:19:39.355Z,32.17
2019-02-24T06:22:42.831Z,32.18
2019-02-24T06:25:46.360Z,32.18
2019-02-24T06:28:49.827Z,32.18
2019-02-24T06:31:53.371Z,32.19
2019-02-24T06:34:57.869Z,32.19
2019-02-24T06:38:02.457Z,32.18
2019-02-24T06:41:06.095Z,32.17
2019-02-24T06:44:09.620Z,32.17
2019-02-24T06:47:13.081Z,32.17
2019-02-24T06:50:16.610Z,32.17
2019-02-24T06:53:20.069Z,32.15
2019-02-24T06:56:23.607Z,32.17
2019-02-24T06:59:27.101Z,32.14
2019-02-24T07:02:30.616Z,32.20
2019-02-24T07:05:34.158Z,32.19
2019-02-24T07:08:37.813Z,32.18
2019-02-24T07:11:41.403Z,32.17
2019-02-24T07:14:44.861Z,32.20
2019-02-24T07:17:48.341Z,32.21
2019-02-24T07:20:51.814Z,32.22
2019-02-24T07:23:55.314Z,32.17
2019-02-24T07:26:59.880Z,32.21
2019-02-24T07:30:03.376Z,32.18
2019-02-24T07:33:06.890Z,32.18
2019-02-24T07:36:10.336Z,32.18
2019-02-24T07:39:13.795Z,32.21
2019-02-24T07:42:17.343Z,32.18
2019-02-24T07:45:21.889Z,32.21
2019-02-24T07:48:25.484Z,32.21
2019-02-24T07:51:28.961Z,32.18
2019-02-24T07:54:32.486Z,32.20
2019-02-24T07:57:36.191Z,32.23
2019-02-24T08:00:39.756Z,32.21
2019-02-24T08:03:43.412Z,32.19
2019-02-24T08:06:46.999Z,32.19
2019-02-24T08:09:50.525Z,32.18
2019-02-24T08:12:54.016Z,32.20
2019-02-24T08:15:57.597Z,32.16
2019-02-24T08:19:01.207Z,32.43
2019-02-24T08:22:05.004Z,32.35
2019-02-24T08:25:08.712Z,32.56
2019-02-24T08:28:12.343Z,32.59
2019-02-24T08:31:16.845Z,32.81
2019-02-24T08:34:21.384Z,32.64
2019-02-24T08:37:24.861Z,32.67
2019-02-24T08:40:28.378Z,32.70
2019-02-24T08:43:31.901Z,32.71
2019-02-24T08:46:35.393Z,32.73
2019-02-24T08:49:38.901Z,32.79
2019-02-24T08:52:42.371Z,32.73
2019-02-24T08:55:45.941Z,32.69
2019-02-24T08:58:49.585Z,32.81
2019-02-24T09:01:54.136Z,32.87
2019-02-24T09:04:57.712Z,32.85
2019-02-24T09:08:01.311Z,32.88
2019-02-24T09:11:04.790Z,32.89
2019-02-24T09:14:09.469Z,32.85
2019-02-24T09:17:15.117Z,32.89
2019-02-24T09:20:18.758Z,32.86
2019-02-24T09:23:24.364Z,32.81
2019-02-24T09:26:29.993Z,32.80
2019-02-24T09:29:33.611Z,32.85
2019-02-24T09:32:37.122Z,32.87
2019-02-24T09:35:40.604Z,32.80
2019-02-24T09:38:44.113Z,32.88
2019-02-24T09:41:47.653Z,32.89
2019-02-24T09:44:51.158Z,32.79
2019-02-24T09:47:54.848Z,32.63
2019-02-24T09:50:58.466Z,32.58
2019-02-24T09:54:01.938Z,32.52
2019-02-24T09:57:05.609Z,32.50
2019-02-24T10:00:09.993Z,32.45
2019-02-24T10:03:13.633Z,32.42
2019-02-24T10:06:17.390Z,32.40
2019-02-24T10:09:20.979Z,32.37
2019-02-24T10:12:24.486Z,32.34
2019-02-24T10:15:27.985Z,32.29
2019-02-24T10:18:31.471Z,32.30
2019-02-24T10:21:40.902Z,32.29
2019-02-24T10:24:44.466Z,32.27
2019-02-24T10:27:48.929Z,32.28
2019-02-24T10:30:52.449Z,32.27
2019-02-24T10:33:57.010Z,32.22
2019-02-24T10:37:00.651Z,32.21
2019-02-24T10:40:05.283Z,32.18
2019-02-24T10:43:08.958Z,32.16
2019-02-24T10:46:12.632Z,32.17
2019-02-24T10:49:18.142Z,32.64
2019-02-24T10:52:21.629Z,32.78
2019-02-24T10:55:26.195Z,32.77
2019-02-24T10:58:34.819Z,32.79
2019-02-24T11:01:35.092Z,32.79
2019-02-24T11:04:38.761Z,32.75
2019-02-24T11:07:42.194Z,32.76
2019-02-24T11:10:45.803Z,32.73
2019-02-24T11:13:50.434Z,32.70
2019-02-24T11:16:53.960Z,32.73
2019-02-24T11:19:57.497Z,32.59
2019-02-24T11:23:00.951Z,32.54
2019-02-24T11:26:04.470Z,32.53
2019-02-24T11:29:08.127Z,32.54
2019-02-24T11:32:11.657Z,32.59
2019-02-24T11:35:15.162Z,32.50
2019-02-24T11:38:18.682Z,32.45
2019-02-24T11:41:22.169Z,32.45
2019-02-24T11:44:25.682Z,32.46
2019-02-24T11:47:30.203Z,32.39
2019-02-24T11:50:33.694Z,32.32
2019-02-24T11:53:37.211Z,32.34
2019-02-24T11:56:40.706Z,32.35
2019-02-24T11:59:44.217Z,32.39
2019-02-24T12:02:47.695Z,32.35
2019-02-24T12:05:51.303Z,32.26
2019-02-24T12:08:54.912Z,32.26
2019-02-24T12:11:58.430Z,32.32
2019-02-24T12:15:02.945Z,32.29
2019-02-24T12:18:06.453Z,32.18
2019-02-24T12:21:11.109Z,32.17
2019-02-24T12:24:15.000Z,32.15
2019-02-24T12:27:18.583Z,32.17
2019-02-24T12:30:22.294Z,32.18
2019-02-24T12:33:25.794Z,32.14
2019-02-24T12:36:30.336Z,32.15
2019-02-24T12:39:33.811Z,31.99
2019-02-24T12:42:37.389Z,32.02
2019-02-24T12:45:40.943Z,31.99
2019-02-24T12:48:44.408Z,31.88
2019-02-24T12:51:47.940Z,31.88
2019-02-24T12:54:51.553Z,31.83
2019-02-24T12:57:55.009Z,31.81
2019-02-24T13:00:58.522Z,31.77
2019-02-24T13:04:03.193Z,31.74
2019-02-24T13:07:06.990Z,31.75
2019-02-24T13:10:12.050Z,31.66
2019-02-24T13:13:15.504Z,31.68
2019-02-24T13:16:18.998Z,31.63
2019-02-24T13:19:22.507Z,31.71
2019-02-24T13:22:26.027Z,31.67
2019-02-24T13:25:29.540Z,31.65
2019-02-24T13:28:34.721Z,31.60
2019-02-24T13:31:38.192Z,31.59
2019-02-24T13:34:41.653Z,31.53
2019-02-24T13:37:45.158Z,31.47
2019-02-24T13:40:48.728Z,31.49
2019-02-24T13:43:52.337Z,31.53
2019-02-24T13:46:55.904Z,31.49
2019-02-24T13:49:59.458Z,31.52
2019-02-24T13:53:02.980Z,31.49
2019-02-24T13:56:07.578Z,31.56
2019-02-24T13:59:11.181Z,31.55
2019-02-24T14:02:23.595Z,31.54
2019-02-24T14:05:20.874Z,31.54
2019-02-24T14:08:24.371Z,31.40
2019-02-24T14:11:27.827Z,31.29
2019-02-24T14:14:31.327Z,31.21
2019-02-24T14:17:34.863Z,31.17
2019-02-24T14:20:38.368Z,31.16
2019-02-24T14:23:41.891Z,31.17
2019-02-24T14:26:45.378Z,31.15
2019-02-24T14:29:48.848Z,31.12
2019-02-24T14:32:52.689Z,31.11
2019-02-24T14:35:56.215Z,31.11
2019-02-24T14:38:59.779Z,31.46
2019-02-24T14:42:04.141Z,31.55
2019-02-24T14:45:13.428Z,31.50
2019-02-24T14:48:17.004Z,31.56
2019-02-24T14:51:21.586Z,31.60
2019-02-24T14:54:25.691Z,31.56
2019-02-24T14:57:29.606Z,31.51
2019-02-24T15:00:34.202Z,31.58
2019-02-24T15:03:37.719Z,31.60
2019-02-24T15:06:41.222Z,31.58
2019-02-24T15:09:44.858Z,31.58
2019-02-24T15:12:48.352Z,31.61
2019-02-24T15:15:52.096Z,31.59
2019-02-24T15:18:55.729Z,31.58
2019-02-24T15:22:00.252Z,31.62
2019-02-24T15:25:03.955Z,31.64
2019-02-24T15:28:07.399Z,31.62
2019-02-24T15:31:10.870Z,31.66
2019-02-24T15:34:14.484Z,31.69
2019-02-24T15:37:20.019Z,31.73
2019-02-24T15:40:23.569Z,31.77
2019-02-24T15:43:27.236Z,31.78
2019-02-24T15:46:30.754Z,31.74
2019-02-24T15:49:34.206Z,31.74
2019-02-24T15:52:37.719Z,31.77
2019-02-24T15:55:41.228Z,31.77
2019-02-24T15:58:44.776Z,31.75
2019-02-24T16:01:48.467Z,31.79
2019-02-24T16:04:52.029Z,31.77
2019-02-24T16:07:55.668Z,31.81
2019-02-24T16:11:00.188Z,31.72
2019-02-24T16:14:03.651Z,31.61
2019-02-24T16:17:07.075Z,31.59
2019-02-24T16:20:14.293Z,31.68
2019-02-24T16:23:17.856Z,31.87
2019-02-24T16:26:27.306Z,31.91
2019-02-24T16:29:30.801Z,31.93
2019-02-24T16:32:35.376Z,31.93
2019-02-24T16:35:38.859Z,31.99
2019-02-24T16:38:42.325Z,32.03
2019-02-24T16:41:45.824Z,32.04
2019-02-24T16:44:49.419Z,32.04
2019-02-24T16:47:53.057Z,32.10
2019-02-24T16:50:56.536Z,32.11
2019-02-24T16:54:00.051Z,32.07
2019-02-24T16:57:05.885Z,32.13
2019-02-24T17:00:11.758Z,32.12
2019-02-24T17:03:19.814Z,32.15
2019-02-24T17:06:20.800Z,32.18
2019-02-24T17:09:24.327Z,32.12
2019-02-24T17:12:27.800Z,32.17
2019-02-24T17:15:31.267Z,32.19
2019-02-24T17:18:34.904Z,32.19
2019-02-24T17:21:38.513Z,32.20
2019-02-24T17:24:43.071Z,32.26
2019-02-24T17:27:46.646Z,32.24
2019-02-24T17:30:50.234Z,32.22
2019-02-24T17:33:53.866Z,32.24
2019-02-24T17:36:57.500Z,32.24
2019-02-24T17:40:01.202Z,32.20
2019-02-24T17:43:04.970Z,32.22
2019-02-24T17:46:08.576Z,32.23
2019-02-24T17:49:12.190Z,32.23
2019-02-24T17:52:15.777Z,32.28
2019-02-24T17:55:19.282Z,32.31
2019-02-24T17:58:24.835Z,32.29
2019-02-24T18:01:28.310Z,32.25
2019-02-24T18:04:31.830Z,32.26
2019-02-24T18:07:35.430Z,32.31
2019-02-24T18:10:39.020Z,32.28
2019-02-24T18:13:42.595Z,32.23
2019-02-24T18:16:46.063Z,32.24
2019-02-24T18:19:49.581Z,32.28
2019-02-24T18:22:53.064Z,32.31
2019-02-24T18:25:56.580Z,32.26
2019-02-24T18:29:01.096Z,32.34
2019-02-24T18:32:04.586Z,32.35
2019-02-24T18:35:08.060Z,32.33
2019-02-24T18:38:11.530Z,32.28
2019-02-24T18:41:15.049Z,32.36
2019-02-24T18:44:18.506Z,32.34
2019-02-24T18:47:22.088Z,32.33
2019-02-24T18:50:25.619Z,32.35
2019-02-24T18:53:29.094Z,32.34
2019-02-24T18:56:32.538Z,32.38
2019-02-24T18:59:35.985Z,32.37
2019-02-24T19:02:39.605Z,32.35
2019-02-24T19:05:43.065Z,32.31
2019-02-24T19:08:46.737Z,32.26
2019-02-24T19:11:50.343Z,32.27
2019-02-24T19:14:54.065Z,32.26
2019-02-24T19:17:57.517Z,32.40
2019-02-24T19:21:02.033Z,32.53
2019-02-24T19:24:05.572Z,32.57
2019-02-24T19:27:09.015Z,32.60
2019-02-24T19:30:13.862Z,32.58
2019-02-24T19:33:17.505Z,32.62
2019-02-24T19:36:20.995Z,32.63
2019-02-24T19:39:24.472Z,32.63
2019-02-24T19:42:28.003Z,32.65
2019-02-24T19:45:31.456Z,32.62
2019-02-24T19:48:41.812Z,32.62
2019-02-24T19:51:40.179Z,32.59
2019-02-24T19:54:43.860Z,32.64
2019-02-24T19:57:47.361Z,32.66
2019-02-24T20:00:50.846Z,32.73
2019-02-24T20:03:54.452Z,32.67
2019-02-24T20:06:57.947Z,32.68
2019-02-24T20:10:01.551Z,32.73
2019-02-24T20:13:05.027Z,32.77
2019-02-24T20:16:09.544Z,32.73
2019-02-24T20:19:13.016Z,32.75
2019-02-24T20:22:16.551Z,32.77
2019-02-24T20:25:20.084Z,32.83
2019-02-24T20:28:23.585Z,32.83
2019-02-24T20:31:27.136Z,32.85
2019-02-24T20:34:30.650Z,32.87
2019-02-24T20:37:34.180Z,32.79
2019-02-24T20:40:37.631Z,32.80
2019-02-24T20:43:41.112Z,32.88
2019-02-24T20:46:44.760Z,32.87
2019-02-24T20:49:48.438Z,32.87
2019-02-24T20:52:51.950Z,32.87
2019-02-24T20:55:55.496Z,32.86
2019-02-24T20:58:59.422Z,32.87
2019-02-24T21:02:03.082Z,32.87
2019-02-24T21:05:07.017Z,32.90
2019-02-24T21:08:10.572Z,32.89
2019-02-24T21:11:14.116Z,32.95
2019-02-24T21:14:17.688Z,32.87
2019-02-24T21:17:21.128Z,32.73
2019-02-24T21:20:26.146Z,32.69
2019-02-24T21:23:29.622Z,32.69
2019-02-24T21:26:33.126Z,32.68
2019-02-24T21:29:36.658Z,32.68
2019-02-24T21:32:40.132Z,32.60
2019-02-24T21:35:43.731Z,32.62
2019-02-24T21:38:47.356Z,32.58
2019-02-24T21:41:50.853Z,32.53
2019-02-24T21:44:54.368Z,32.58
2019-02-24T21:47:57.832Z,32.56
2019-02-24T21:51:03.392Z,32.54
2019-02-24T21:54:07.939Z,32.51
2019-02-24T21:57:11.512Z,32.50
2019-02-24T22:00:16.906Z,32.53
2019-02-24T22:03:20.430Z,32.51
2019-02-24T22:06:23.868Z,32.50
2019-02-24T22:09:27.485Z,32.47
2019-02-24T22:12:31.173Z,32.50
2019-02-24T22:15:34.687Z,32.49
2019-02-24T22:18:38.210Z,32.50
2019-02-24T22:21:41.689Z,32.51
2019-02-24T22:24:47.366Z,32.49
2019-02-24T22:27:50.888Z,32.52
2019-02-24T22:30:54.446Z,32.51
2019-02-24T22:33:57.949Z,32.54
2019-02-24T22:37:02.474Z,32.48
2019-02-24T22:40:06.822Z,32.45
2019-02-24T22:43:10.269Z,32.50
2019-02-24T22:46:13.825Z,32.48
2019-02-24T22:49:17.289Z,32.48
2019-02-24T22:52:20.779Z,32.51
2019-02-24T22:55:24.278Z,32.51
2019-02-24T22:58:27.772Z,32.48
2019-02-24T23:01:37.920Z,32.51
2019-02-24T23:04:41.567Z,32.51
2019-02-24T23:07:46.081Z,32.46
2019-02-24T23:10:50.705Z,32.45
2019-02-24T23:13:54.754Z,32.46
2019-02-24T23:16:58.212Z,32.46
2019-02-24T23:20:01.805Z,32.46
2019-02-24T23:23:05.314Z,32.42
2019-02-24T23:26:08.828Z,32.43
2019-02-24T23:29:12.416Z,32.47
2019-02-24T23:32:16.078Z,32.46
2019-02-24T23:35:19.645Z,32.47
2019-02-24T23:38:23.151Z,32.50
2019-02-24T23:41:26.639Z,32.49
2019-02-24T23:44:30.141Z,32.48
2019-02-24T23:47:34.527Z,32.49
2019-02-24T23:50:38.154Z,32.47
2019-02-24T23:53:41.704Z,32.43
2019-02-24T23:56:46.209Z,32.46
2019-02-24T23:59:50.105Z,32.44
